sensor_id;sensor_type;location;lat;lon;timestamp;pressure;altitude;pressure_sealevel;temperature;humidity
33422;BME280;19763;55.798;37.782;2023-07-28T00:01:42;38292.91;;;-145.63;60.07
33422;BME280;19763;55.798;37.782;2023-07-28T00:04:08;38281.19;;;-145.63;60.22
33422;BME280;19763;55.798;37.782;2023-07-28T00:06:36;38277.28;;;-145.63;59.90
33422;BME280;19763;55.798;37.782;2023-07-28T00:09:02;38269.47;;;-145.63;59.61
33422;BME280;19763;55.798;37.782;2023-07-28T00:11:27;38267.50;;;-145.63;59.86
33422;BME280;19763;55.798;37.782;2023-07-28T00:13:53;38269.47;;;-145.63;59.98
33422;BME280;19763;55.798;37.782;2023-07-28T00:16:19;38275.31;;;-145.63;59.68
33422;BME280;19763;55.798;37.782;2023-07-28T00:18:45;38261.63;;;-145.63;59.62
33422;BME280;19763;55.798;37.782;2023-07-28T00:21:10;38238.16;;;-145.63;59.69
33422;BME280;19763;55.798;37.782;2023-07-28T00:23:36;38273.38;;;-145.63;59.40
33422;BME280;19763;55.798;37.782;2023-07-28T00:26:01;38242.09;;;-145.63;59.79
33422;BME280;19763;55.798;37.782;2023-07-28T00:28:27;38257.72;;;-145.63;59.30
33422;BME280;19763;55.798;37.782;2023-07-28T00:30:53;38234.25;;;-145.63;59.80
33422;BME280;19763;55.798;37.782;2023-07-28T00:33:18;38247.94;;;-145.63;59.60
33422;BME280;19763;55.798;37.782;2023-07-28T00:35:44;38300.75;;;-145.63;59.83
33422;BME280;19763;55.798;37.782;2023-07-28T00:38:10;38249.91;;;-145.63;60.19
33422;BME280;19763;55.798;37.782;2023-07-28T00:40:36;38265.53;;;-145.63;59.88
33422;BME280;19763;55.798;37.782;2023-07-28T00:43:02;38265.53;;;-145.63;59.92
33422;BME280;19763;55.798;37.782;2023-07-28T00:45:28;38273.38;;;-145.63;59.89
33422;BME280;19763;55.798;37.782;2023-07-28T00:47:55;38244.03;;;-145.63;60.32
33422;BME280;19763;55.798;37.782;2023-07-28T00:50:23;38296.81;;;-145.63;60.57
33422;BME280;19763;55.798;37.782;2023-07-28T00:52:50;38308.56;;;-145.63;61.13
33422;BME280;19763;55.798;37.782;2023-07-28T00:55:16;38294.88;;;-145.63;60.75
33422;BME280;19763;55.798;37.782;2023-07-28T00:57:42;38300.75;;;-145.63;60.71
33422;BME280;19763;55.798;37.782;2023-07-28T01:00:08;38308.56;;;-145.63;60.17
33422;BME280;19763;55.798;37.782;2023-07-28T01:02:34;38265.53;;;-145.63;60.32
33422;BME280;19763;55.798;37.782;2023-07-28T01:05:00;38310.50;;;-145.63;60.52
33422;BME280;19763;55.798;37.782;2023-07-28T01:08:01;38290.97;;;-145.63;60.77
33422;BME280;19763;55.798;37.782;2023-07-28T01:10:31;38304.66;;;-145.63;60.86
33422;BME280;19763;55.798;37.782;2023-07-28T01:12:58;38318.34;;;-145.63;60.88
33422;BME280;19763;55.798;37.782;2023-07-28T01:15:23;38302.69;;;-145.63;60.68
33422;BME280;19763;55.798;37.782;2023-07-28T01:17:50;38271.41;;;-145.63;60.71
33422;BME280;19763;55.798;37.782;2023-07-28T01:20:16;38361.34;;;-145.63;60.80
33422;BME280;19763;55.798;37.782;2023-07-28T01:25:36;38332.03;;;-145.63;60.90
33422;BME280;19763;55.798;37.782;2023-07-28T01:28:05;38343.75;;;-145.63;60.99
33422;BME280;19763;55.798;37.782;2023-07-28T01:30:31;38328.13;;;-145.63;60.81
33422;BME280;19763;55.798;37.782;2023-07-28T01:32:57;38382.88;;;-145.63;61.41
33422;BME280;19763;55.798;37.782;2023-07-28T01:35:25;38351.56;;;-145.63;61.10
33422;BME280;19763;55.798;37.782;2023-07-28T01:37:51;38337.88;;;-145.63;61.14
33422;BME280;19763;55.798;37.782;2023-07-28T01:40:17;38353.53;;;-145.63;61.06
33422;BME280;19763;55.798;37.782;2023-07-28T01:42:43;38388.72;;;-145.63;61.61
33422;BME280;19763;55.798;37.782;2023-07-28T01:45:09;38644.88;;;-145.63;62.31
33422;BME280;19763;55.798;37.782;2023-07-28T01:47:35;38388.72;;;-145.63;62.02
33422;BME280;19763;55.798;37.782;2023-07-28T01:50:01;38398.50;;;-145.63;61.92
33422;BME280;19763;55.798;37.782;2023-07-28T01:52:29;38384.81;;;-145.63;61.62
33422;BME280;19763;55.798;37.782;2023-07-28T01:54:55;38349.63;;;-145.63;61.91
33422;BME280;19763;55.798;37.782;2023-07-28T01:57:21;38388.72;;;-145.63;61.83
33422;BME280;19763;55.798;37.782;2023-07-28T01:59:49;38402.41;;;-145.63;62.25
33422;BME280;19763;55.798;37.782;2023-07-28T02:02:15;38375.03;;;-145.63;61.79
33422;BME280;19763;55.798;37.782;2023-07-28T02:04:41;38380.91;;;-145.63;61.66
33422;BME280;19763;55.798;37.782;2023-07-28T02:07:06;38371.13;;;-145.63;61.32
33422;BME280;19763;55.798;37.782;2023-07-28T02:09:32;38390.69;;;-145.63;61.43
33422;BME280;19763;55.798;37.782;2023-07-28T02:11:58;38365.25;;;-145.63;61.49
33422;BME280;19763;55.798;37.782;2023-07-28T02:14:23;38380.91;;;-145.63;61.16
33422;BME280;19763;55.798;37.782;2023-07-28T02:16:49;38410.22;;;-145.63;61.42
33422;BME280;19763;55.798;37.782;2023-07-28T02:19:36;38369.19;;;-145.63;62.04
33422;BME280;19763;55.798;37.782;2023-07-28T02:22:01;38369.19;;;-145.63;61.64
33422;BME280;19763;55.798;37.782;2023-07-28T02:24:27;38412.19;;;-145.63;61.95
33422;BME280;19763;55.798;37.782;2023-07-28T02:26:52;38425.88;;;-145.63;62.48
33422;BME280;19763;55.798;37.782;2023-07-28T02:29:20;38429.78;;;-145.63;63.01
33422;BME280;19763;55.798;37.782;2023-07-28T02:31:45;38443.47;;;-145.63;62.98
33422;BME280;19763;55.798;37.782;2023-07-28T02:34:11;38425.88;;;-145.63;63.04
33422;BME280;19763;55.798;37.782;2023-07-28T02:36:37;38443.47;;;-145.63;62.89
33422;BME280;19763;55.798;37.782;2023-07-28T02:39:02;38439.56;;;-145.63;62.77
33422;BME280;19763;55.798;37.782;2023-07-28T02:41:28;38464.97;;;-145.63;62.60
33422;BME280;19763;55.798;37.782;2023-07-28T02:43:53;38421.97;;;-145.63;62.23
33422;BME280;19763;55.798;37.782;2023-07-28T02:46:19;38392.63;;;-145.63;61.69
33422;BME280;19763;55.798;37.782;2023-07-28T02:48:45;38392.63;;;-145.63;61.64
33422;BME280;19763;55.798;37.782;2023-07-28T02:51:11;38359.41;;;-145.63;61.44
33422;BME280;19763;55.798;37.782;2023-07-28T02:53:37;38414.16;;;-145.63;61.75
33422;BME280;19763;55.798;37.782;2023-07-28T02:56:02;38369.19;;;-145.63;61.53
33422;BME280;19763;55.798;37.782;2023-07-28T02:58:28;38390.69;;;-145.63;61.15
33422;BME280;19763;55.798;37.782;2023-07-28T03:00:54;38349.63;;;-145.63;61.21
33422;BME280;19763;55.798;37.782;2023-07-28T03:03:20;38382.88;;;-145.63;61.28
33422;BME280;19763;55.798;37.782;2023-07-28T03:05:45;38337.88;;;-145.63;61.21
33422;BME280;19763;55.798;37.782;2023-07-28T03:08:11;38339.84;;;-145.63;61.23
33422;BME280;19763;55.798;37.782;2023-07-28T03:10:37;38349.63;;;-145.63;61.25
33422;BME280;19763;55.798;37.782;2023-07-28T03:13:02;38367.22;;;-145.63;61.20
33422;BME280;19763;55.798;37.782;2023-07-28T03:15:28;38328.13;;;-145.63;60.64
33422;BME280;19763;55.798;37.782;2023-07-28T03:17:54;38371.13;;;-145.63;60.55
33422;BME280;19763;55.798;37.782;2023-07-28T03:20:20;38361.34;;;-145.63;60.52
33422;BME280;19763;55.798;37.782;2023-07-28T03:22:46;38355.50;;;-145.63;60.38
33422;BME280;19763;55.798;37.782;2023-07-28T03:25:12;38320.28;;;-145.63;60.36
33422;BME280;19763;55.798;37.782;2023-07-28T03:27:38;38341.81;;;-145.63;59.96
33422;BME280;19763;55.798;37.782;2023-07-28T03:30:04;38332.03;;;-145.63;60.01
33422;BME280;19763;55.798;37.782;2023-07-28T03:32:32;38335.94;;;-145.63;60.05
33422;BME280;19763;55.798;37.782;2023-07-28T03:34:58;38353.53;;;-145.63;60.17
33422;BME280;19763;55.798;37.782;2023-07-28T03:37:24;38328.13;;;-145.63;59.97
33422;BME280;19763;55.798;37.782;2023-07-28T03:39:49;38337.88;;;-145.63;59.94
33422;BME280;19763;55.798;37.782;2023-07-28T03:42:15;38273.38;;;-145.63;59.82
33422;BME280;19763;55.798;37.782;2023-07-28T03:44:41;38320.28;;;-145.63;59.61
33422;BME280;19763;55.798;37.782;2023-07-28T03:47:07;38296.81;;;-145.63;59.83
33422;BME280;19763;55.798;37.782;2023-07-28T03:49:33;38314.44;;;-145.63;59.78
33422;BME280;19763;55.798;37.782;2023-07-28T03:51:59;38326.16;;;-145.63;60.32
33422;BME280;19763;55.798;37.782;2023-07-28T03:54:24;38314.44;;;-145.63;60.50
33422;BME280;19763;55.798;37.782;2023-07-28T03:56:51;38332.03;;;-145.63;60.62
33422;BME280;19763;55.798;37.782;2023-07-28T03:59:16;38377.00;;;-145.63;61.07
33422;BME280;19763;55.798;37.782;2023-07-28T04:01:42;38398.50;;;-145.63;61.83
33422;BME280;19763;55.798;37.782;2023-07-28T04:04:08;38427.84;;;-145.63;63.91
33422;BME280;19763;55.798;37.782;2023-07-28T04:06:42;38472.81;;;-145.63;65.13
33422;BME280;19763;55.798;37.782;2023-07-28T04:09:08;38449.34;;;-145.63;64.97
33422;BME280;19763;55.798;37.782;2023-07-28T04:11:34;38504.09;;;-145.63;65.27
33422;BME280;19763;55.798;37.782;2023-07-28T04:14:00;38449.34;;;-145.63;65.06
33422;BME280;19763;55.798;37.782;2023-07-28T04:16:26;38504.09;;;-145.63;65.34
33422;BME280;19763;55.798;37.782;2023-07-28T04:18:51;38492.34;;;-145.63;66.26
33422;BME280;19763;55.798;37.782;2023-07-28T04:21:17;38496.28;;;-145.63;65.68
33422;BME280;19763;55.798;37.782;2023-07-28T04:23:43;38506.03;;;-145.63;65.67
33422;BME280;19763;55.798;37.782;2023-07-28T04:26:09;38472.81;;;-145.63;65.72
33422;BME280;19763;55.798;37.782;2023-07-28T04:28:34;38504.09;;;-145.63;65.79
33422;BME280;19763;55.798;37.782;2023-07-28T04:31:00;38451.28;;;-145.63;65.50
33422;BME280;19763;55.798;37.782;2023-07-28T04:33:26;38492.34;;;-145.63;65.08
33422;BME280;19763;55.798;37.782;2023-07-28T04:35:52;38496.28;;;-145.63;65.06
33422;BME280;19763;55.798;37.782;2023-07-28T04:38:17;38502.13;;;-145.63;65.26
33422;BME280;19763;55.798;37.782;2023-07-28T04:40:44;38478.66;;;-145.63;65.21
33422;BME280;19763;55.798;37.782;2023-07-28T04:43:10;38506.03;;;-145.63;65.64
33422;BME280;19763;55.798;37.782;2023-07-28T04:45:36;38494.31;;;-145.63;65.64
33422;BME280;19763;55.798;37.782;2023-07-28T04:48:02;38492.34;;;-145.63;65.90
33422;BME280;19763;55.798;37.782;2023-07-28T04:50:28;38549.06;;;-145.63;65.36
33422;BME280;19763;55.798;37.782;2023-07-28T04:52:54;38470.84;;;-145.63;65.75
33422;BME280;19763;55.798;37.782;2023-07-28T04:55:20;38504.09;;;-145.63;65.47
33422;BME280;19763;55.798;37.782;2023-07-28T04:57:46;38513.88;;;-145.63;65.57
33422;BME280;19763;55.798;37.782;2023-07-28T05:00:12;38484.53;;;-145.63;65.71
33422;BME280;19763;55.798;37.782;2023-07-28T05:02:38;38502.13;;;-145.63;65.20
33422;BME280;19763;55.798;37.782;2023-07-28T05:05:04;38515.81;;;-145.63;65.29
33422;BME280;19763;55.798;37.782;2023-07-28T05:07:30;38592.09;;;-145.63;65.79
33422;BME280;19763;55.798;37.782;2023-07-28T05:09:56;38531.47;;;-145.63;65.81
33422;BME280;19763;55.798;37.782;2023-07-28T05:12:21;38506.03;;;-145.63;66.16
33422;BME280;19763;55.798;37.782;2023-07-28T05:14:47;38488.44;;;-145.63;65.47
33422;BME280;19763;55.798;37.782;2023-07-28T05:17:14;38439.56;;;-145.63;65.48
33422;BME280;19763;55.798;37.782;2023-07-28T05:19:40;38498.22;;;-145.63;64.85
33422;BME280;19763;55.798;37.782;2023-07-28T05:22:06;38511.91;;;-145.63;65.00
33422;BME280;19763;55.798;37.782;2023-07-28T05:24:34;38482.59;;;-145.63;65.06
33422;BME280;19763;55.798;37.782;2023-07-28T05:27:00;38445.44;;;-145.63;64.65
33422;BME280;19763;55.798;37.782;2023-07-28T05:29:26;38457.16;;;-145.63;64.11
33422;BME280;19763;55.798;37.782;2023-07-28T05:31:52;38449.34;;;-145.63;64.69
33422;BME280;19763;55.798;37.782;2023-07-28T05:34:17;38414.16;;;-145.63;63.01
33422;BME280;19763;55.798;37.782;2023-07-28T05:36:43;38355.50;;;-145.63;62.91
33422;BME280;19763;55.798;37.782;2023-07-28T05:39:10;38363.31;;;-145.63;62.99
33422;BME280;19763;55.798;37.782;2023-07-28T05:41:38;38287.06;;;-145.63;62.83
33422;BME280;19763;55.798;37.782;2023-07-28T05:44:04;38332.03;;;-145.63;62.86
33422;BME280;19763;55.798;37.782;2023-07-28T05:46:30;38333.97;;;-145.63;63.88
33422;BME280;19763;55.798;37.782;2023-07-28T05:48:56;38312.47;;;-145.63;63.30
33422;BME280;19763;55.798;37.782;2023-07-28T05:51:22;38253.81;;;-145.63;62.48
33422;BME280;19763;55.798;37.782;2023-07-28T05:53:49;38220.56;;;-145.63;62.25
33422;BME280;19763;55.798;37.782;2023-07-28T05:56:15;38246.00;;;-145.63;62.01
33422;BME280;19763;55.798;37.782;2023-07-28T05:58:41;38169.75;;;-145.63;62.79
33422;BME280;19763;55.798;37.782;2023-07-28T06:01:07;38265.53;;;-145.63;61.31
33422;BME280;19763;55.798;37.782;2023-07-28T06:03:32;38197.13;;;-145.63;61.94
33422;BME280;19763;55.798;37.782;2023-07-28T06:05:58;38066.13;;;-145.63;62.22
33422;BME280;19763;55.798;37.782;2023-07-28T06:08:24;38226.44;;;-145.63;61.44
33422;BME280;19763;55.798;37.782;2023-07-28T06:10:49;38214.72;;;-145.63;61.15
33422;BME280;19763;55.798;37.782;2023-07-28T06:13:15;38230.34;;;-145.63;60.24
33422;BME280;19763;55.798;37.782;2023-07-28T06:15:42;38242.09;;;-145.63;59.69
33422;BME280;19763;55.798;37.782;2023-07-28T06:18:08;38206.88;;;-145.63;59.20
33422;BME280;19763;55.798;37.782;2023-07-28T06:20:34;38206.88;;;-145.63;59.29
33422;BME280;19763;55.798;37.782;2023-07-28T06:23:00;38189.28;;;-145.63;60.00
33422;BME280;19763;55.798;37.782;2023-07-28T06:25:26;38152.16;;;-145.63;58.97
33422;BME280;19763;55.798;37.782;2023-07-28T06:27:52;38156.06;;;-145.63;59.21
33422;BME280;19763;55.798;37.782;2023-07-28T06:30:18;38167.78;;;-145.63;58.64
33422;BME280;19763;55.798;37.782;2023-07-28T06:32:44;38128.69;;;-145.63;60.09
33422;BME280;19763;55.798;37.782;2023-07-28T06:35:09;38130.63;;;-145.63;59.28
33422;BME280;19763;55.798;37.782;2023-07-28T06:37:38;38132.59;;;-145.63;57.63
33422;BME280;19763;55.798;37.782;2023-07-28T06:40:05;38075.91;;;-145.63;58.13
33422;BME280;19763;55.798;37.782;2023-07-28T06:42:33;38113.03;;;-145.63;56.99
33422;BME280;19763;55.798;37.782;2023-07-28T06:44:59;38101.31;;;-145.63;57.43
33422;BME280;19763;55.798;37.782;2023-07-28T06:47:24;38115.00;;;-145.63;57.43
33422;BME280;19763;55.798;37.782;2023-07-28T06:49:50;38109.13;;;-145.63;57.95
33422;BME280;19763;55.798;37.782;2023-07-28T06:52:16;38140.41;;;-145.63;58.89
33422;BME280;19763;55.798;37.782;2023-07-28T06:54:41;38218.63;;;-145.63;57.05
33422;BME280;19763;55.798;37.782;2023-07-28T06:57:07;38214.72;;;-145.63;57.45
33422;BME280;19763;55.798;37.782;2023-07-28T06:59:33;38199.06;;;-145.63;57.76
33422;BME280;19763;55.798;37.782;2023-07-28T07:01:58;38218.63;;;-145.63;57.82
33422;BME280;19763;55.798;37.782;2023-07-28T07:04:24;38269.47;;;-145.63;58.63
33422;BME280;19763;55.798;37.782;2023-07-28T07:06:50;38269.47;;;-145.63;60.30
33422;BME280;19763;55.798;37.782;2023-07-28T07:09:15;38316.38;;;-145.63;61.30
33422;BME280;19763;55.798;37.782;2023-07-28T07:11:41;38328.13;;;-145.63;61.82
33422;BME280;19763;55.798;37.782;2023-07-28T07:14:07;38339.84;;;-145.63;62.00
33422;BME280;19763;55.798;37.782;2023-07-28T07:16:34;38353.53;;;-145.63;61.88
33422;BME280;19763;55.798;37.782;2023-07-28T07:19:00;38335.94;;;-145.63;61.56
33422;BME280;19763;55.798;37.782;2023-07-28T07:21:27;38330.06;;;-145.63;61.60
33422;BME280;19763;55.798;37.782;2023-07-28T07:23:53;38330.06;;;-145.63;61.24
33422;BME280;19763;55.798;37.782;2023-07-28T07:26:18;38212.75;;;-145.63;61.02
33422;BME280;19763;55.798;37.782;2023-07-28T07:28:44;38179.50;;;-145.63;62.66
33422;BME280;19763;55.798;37.782;2023-07-28T07:31:13;38290.97;;;-145.63;62.43
33422;BME280;19763;55.798;37.782;2023-07-28T07:33:39;38314.44;;;-145.63;62.75
33422;BME280;19763;55.798;37.782;2023-07-28T07:36:05;38320.28;;;-145.63;62.87
33422;BME280;19763;55.798;37.782;2023-07-28T07:38:31;38290.97;;;-145.63;62.28
33422;BME280;19763;55.798;37.782;2023-07-28T07:40:56;38332.03;;;-145.63;62.33
33422;BME280;19763;55.798;37.782;2023-07-28T07:43:22;38322.25;;;-145.63;61.73
33422;BME280;19763;55.798;37.782;2023-07-28T07:45:48;38259.69;;;-145.63;61.92
33422;BME280;19763;55.798;37.782;2023-07-28T07:48:15;38251.84;;;-145.63;61.81
33422;BME280;19763;55.798;37.782;2023-07-28T07:50:41;38277.28;;;-145.63;61.89
33422;BME280;19763;55.798;37.782;2023-07-28T07:53:07;38333.97;;;-145.63;62.05
33422;BME280;19763;55.798;37.782;2023-07-28T07:55:32;38281.19;;;-145.63;61.94
33422;BME280;19763;55.798;37.782;2023-07-28T07:57:58;38298.78;;;-145.63;61.34
33422;BME280;19763;55.798;37.782;2023-07-28T08:00:24;38279.22;;;-145.63;61.38
33422;BME280;19763;55.798;37.782;2023-07-28T08:02:50;38289.00;;;-145.63;61.46
33422;BME280;19763;55.798;37.782;2023-07-28T08:05:15;38257.72;;;-145.63;62.02
33422;BME280;19763;55.798;37.782;2023-07-28T08:07:41;38228.41;;;-145.63;62.18
33422;BME280;19763;55.798;37.782;2023-07-28T08:10:08;38279.22;;;-145.63;61.77
33422;BME280;19763;55.798;37.782;2023-07-28T08:12:33;38116.94;;;-145.63;61.56
33422;BME280;19763;55.798;37.782;2023-07-28T08:15:00;38175.59;;;-145.63;61.44
33422;BME280;19763;55.798;37.782;2023-07-28T08:17:26;38163.88;;;-145.63;62.28
33422;BME280;19763;55.798;37.782;2023-07-28T08:19:51;38128.69;;;-145.63;60.71
33422;BME280;19763;55.798;37.782;2023-07-28T08:22:17;38187.34;;;-145.63;60.18
33422;BME280;19763;55.798;37.782;2023-07-28T08:24:42;38136.50;;;-145.63;60.78
33422;BME280;19763;55.798;37.782;2023-07-28T08:27:08;38101.31;;;-145.63;61.54
33422;BME280;19763;55.798;37.782;2023-07-28T08:29:34;38044.63;;;-145.63;59.26
33422;BME280;19763;55.798;37.782;2023-07-28T08:32:00;38023.09;;;-145.63;59.72
33422;BME280;19763;55.798;37.782;2023-07-28T08:34:26;38036.78;;;-145.63;59.53
33422;BME280;19763;55.798;37.782;2023-07-28T08:36:52;38003.56;;;-145.63;58.53
33422;BME280;19763;55.798;37.782;2023-07-28T08:39:18;38005.50;;;-145.63;57.26
33422;BME280;19763;55.798;37.782;2023-07-28T08:41:43;37950.75;;;-145.63;57.85
33422;BME280;19763;55.798;37.782;2023-07-28T08:44:09;37987.91;;;-145.63;57.59
33422;BME280;19763;55.798;37.782;2023-07-28T08:46:35;37962.50;;;-145.63;58.41
33422;BME280;19763;55.798;37.782;2023-07-28T08:49:02;37989.88;;;-145.63;55.08
33422;BME280;19763;55.798;37.782;2023-07-28T08:51:30;37980.09;;;-145.63;55.22
33422;BME280;19763;55.798;37.782;2023-07-28T08:53:56;37972.28;;;-145.63;54.58
33422;BME280;19763;55.798;37.782;2023-07-28T08:56:23;37942.94;;;-145.63;54.67
33422;BME280;19763;55.798;37.782;2023-07-28T08:58:57;37858.88;;;-145.63;56.07
33422;BME280;19763;55.798;37.782;2023-07-28T09:01:23;37858.88;;;-145.63;54.57
33422;BME280;19763;55.798;37.782;2023-07-28T09:03:49;37854.97;;;-145.63;52.69
33422;BME280;19763;55.798;37.782;2023-07-28T09:06:15;37862.78;;;-145.63;53.22
33422;BME280;19763;55.798;37.782;2023-07-28T09:08:43;37843.25;;;-145.63;53.17
33422;BME280;19763;55.798;37.782;2023-07-28T09:11:08;37882.34;;;-145.63;53.39
33422;BME280;19763;55.798;37.782;2023-07-28T09:13:41;37839.31;;;-145.63;53.45
33422;BME280;19763;55.798;37.782;2023-07-28T09:16:17;37677.06;;;-145.63;54.24
33422;BME280;19763;55.798;37.782;2023-07-28T09:18:43;37874.53;;;-145.63;53.56
33422;BME280;19763;55.798;37.782;2023-07-28T09:21:20;37884.28;;;-145.63;53.88
33422;BME280;19763;55.798;37.782;2023-07-28T09:23:47;37929.25;;;-145.63;53.09
33422;BME280;19763;55.798;37.782;2023-07-28T09:26:14;37948.81;;;-145.63;53.37
33422;BME280;19763;55.798;37.782;2023-07-28T09:28:41;37917.53;;;-145.63;53.81
33422;BME280;19763;55.798;37.782;2023-07-28T09:31:07;37950.75;;;-145.63;54.34
33422;BME280;19763;55.798;37.782;2023-07-28T09:33:35;37948.81;;;-145.63;54.81
33422;BME280;19763;55.798;37.782;2023-07-28T09:36:09;38023.09;;;-145.63;54.09
33422;BME280;19763;55.798;37.782;2023-07-28T09:38:39;38003.56;;;-145.63;53.99
33422;BME280;19763;55.798;37.782;2023-07-28T09:41:08;37954.69;;;-145.63;54.70
33422;BME280;19763;55.798;37.782;2023-07-28T09:43:39;37952.72;;;-145.63;54.63
33422;BME280;19763;55.798;37.782;2023-07-28T09:46:08;38019.19;;;-145.63;54.36
33422;BME280;19763;55.798;37.782;2023-07-28T09:48:34;38001.59;;;-145.63;54.90
33422;BME280;19763;55.798;37.782;2023-07-28T09:51:06;38028.97;;;-145.63;55.80
33422;BME280;19763;55.798;37.782;2023-07-28T09:53:40;38101.31;;;-145.63;54.48
33422;BME280;19763;55.798;37.782;2023-07-28T09:56:10;38081.75;;;-145.63;53.63
33422;BME280;19763;55.798;37.782;2023-07-28T09:58:41;38075.91;;;-145.63;53.65
33422;BME280;19763;55.798;37.782;2023-07-28T10:01:09;38093.50;;;-145.63;54.38
33422;BME280;19763;55.798;37.782;2023-07-28T10:03:36;38070.03;;;-145.63;54.56
33422;BME280;19763;55.798;37.782;2023-07-28T10:06:02;37982.03;;;-145.63;55.46
33422;BME280;19763;55.798;37.782;2023-07-28T10:08:28;38101.31;;;-145.63;56.01
33422;BME280;19763;55.798;37.782;2023-07-28T10:10:55;38116.94;;;-145.63;57.12
33422;BME280;19763;55.798;37.782;2023-07-28T10:13:42;38097.41;;;-145.63;58.15
33422;BME280;19763;55.798;37.782;2023-07-28T10:16:10;38154.09;;;-145.63;58.29
33422;BME280;19763;55.798;37.782;2023-07-28T10:18:36;38126.72;;;-145.63;58.37
33422;BME280;19763;55.798;37.782;2023-07-28T10:21:08;38177.56;;;-145.63;58.30
33422;BME280;19763;55.798;37.782;2023-07-28T10:23:35;38171.69;;;-145.63;58.83
33422;BME280;19763;55.798;37.782;2023-07-28T10:26:04;38165.84;;;-145.63;59.13
33422;BME280;19763;55.798;37.782;2023-07-28T10:28:38;38199.06;;;-145.63;59.87
33422;BME280;19763;55.798;37.782;2023-07-28T10:31:07;38195.16;;;-145.63;60.39
33422;BME280;19763;55.798;37.782;2023-07-28T10:33:38;38222.53;;;-145.63;61.01
33422;BME280;19763;55.798;37.782;2023-07-28T10:39:16;38199.06;;;-145.63;61.94
33422;BME280;19763;55.798;37.782;2023-07-28T10:42:07;38210.81;;;-145.63;61.20
33422;BME280;19763;55.798;37.782;2023-07-28T10:44:34;38191.25;;;-145.63;61.94
33422;BME280;19763;55.798;37.782;2023-07-28T10:47:00;38204.94;;;-145.63;61.58
33422;BME280;19763;55.798;37.782;2023-07-28T10:49:28;38173.66;;;-145.63;61.02
33422;BME280;19763;55.798;37.782;2023-07-28T10:51:54;38208.84;;;-145.63;62.19
33422;BME280;19763;55.798;37.782;2023-07-28T10:54:20;38228.41;;;-145.63;62.00
33422;BME280;19763;55.798;37.782;2023-07-28T10:56:47;38173.66;;;-145.63;61.46
33422;BME280;19763;55.798;37.782;2023-07-28T10:59:14;38181.47;;;-145.63;62.05
33422;BME280;19763;55.798;37.782;2023-07-28T11:01:41;38124.78;;;-145.63;62.32
33422;BME280;19763;55.798;37.782;2023-07-28T11:04:18;38109.13;;;-145.63;61.89
33422;BME280;19763;55.798;37.782;2023-07-28T11:06:46;38089.56;;;-145.63;61.29
33422;BME280;19763;55.798;37.782;2023-07-28T11:09:14;38132.59;;;-145.63;60.49
33422;BME280;19763;55.798;37.782;2023-07-28T11:11:40;38079.81;;;-145.63;60.83
33422;BME280;19763;55.798;37.782;2023-07-28T11:14:07;38109.13;;;-145.63;60.90
33422;BME280;19763;55.798;37.782;2023-07-28T11:16:36;38101.31;;;-145.63;60.30
33422;BME280;19763;55.798;37.782;2023-07-28T11:19:03;38109.13;;;-145.63;60.03
33422;BME280;19763;55.798;37.782;2023-07-28T11:21:39;38095.44;;;-145.63;60.29
33422;BME280;19763;55.798;37.782;2023-07-28T11:24:06;38103.25;;;-145.63;60.44
33422;BME280;19763;55.798;37.782;2023-07-28T11:26:35;38081.75;;;-145.63;60.59
33422;BME280;19763;55.798;37.782;2023-07-28T11:29:01;38048.53;;;-145.63;60.82
33422;BME280;19763;55.798;37.782;2023-07-28T11:31:27;38083.72;;;-145.63;60.75
33422;BME280;19763;55.798;37.782;2023-07-28T11:33:53;38113.03;;;-145.63;60.56
33422;BME280;19763;55.798;37.782;2023-07-28T11:36:30;38105.22;;;-145.63;59.83
33422;BME280;19763;55.798;37.782;2023-07-28T11:38:58;38097.41;;;-145.63;59.55
33422;BME280;19763;55.798;37.782;2023-07-28T11:41:25;38105.22;;;-145.63;59.72
33422;BME280;19763;55.798;37.782;2023-07-28T11:43:51;38093.50;;;-145.63;60.22
33422;BME280;19763;55.798;37.782;2023-07-28T11:46:36;38103.25;;;-145.63;60.25
33422;BME280;19763;55.798;37.782;2023-07-28T11:49:18;38058.28;;;-145.63;59.94
33422;BME280;19763;55.798;37.782;2023-07-28T11:51:52;38052.44;;;-145.63;59.55
33422;BME280;19763;55.798;37.782;2023-07-28T11:54:21;38066.13;;;-145.63;59.45
33422;BME280;19763;55.798;37.782;2023-07-28T11:56:49;38052.44;;;-145.63;59.58
33422;BME280;19763;55.798;37.782;2023-07-28T11:59:17;38066.13;;;-145.63;59.03
33422;BME280;19763;55.798;37.782;2023-07-28T12:02:02;38132.59;;;-145.63;59.38
33422;BME280;19763;55.798;37.782;2023-07-28T12:04:31;38124.78;;;-145.63;59.14
33422;BME280;19763;55.798;37.782;2023-07-28T12:07:13;38060.25;;;-145.63;58.72
33422;BME280;19763;55.798;37.782;2023-07-28T12:09:48;38073.94;;;-145.63;58.75
33422;BME280;19763;55.798;37.782;2023-07-28T12:12:15;38089.56;;;-145.63;59.23
33422;BME280;19763;55.798;37.782;2023-07-28T12:14:41;37909.72;;;-145.63;59.38
33422;BME280;19763;55.798;37.782;2023-07-28T12:17:14;38089.56;;;-145.63;59.40
33422;BME280;19763;55.798;37.782;2023-07-28T12:19:59;38136.50;;;-145.63;59.36
33422;BME280;19763;55.798;37.782;2023-07-28T12:22:26;38101.31;;;-145.63;58.80
33422;BME280;19763;55.798;37.782;2023-07-28T12:24:53;38116.94;;;-145.63;58.83
33422;BME280;19763;55.798;37.782;2023-07-28T12:27:19;38163.88;;;-145.63;58.40
33422;BME280;19763;55.798;37.782;2023-07-28T12:29:52;38142.38;;;-145.63;57.70
33422;BME280;19763;55.798;37.782;2023-07-28T12:32:18;38159.97;;;-145.63;58.06
33422;BME280;19763;55.798;37.782;2023-07-28T12:34:44;38023.09;;;-145.63;57.84
33422;BME280;19763;55.798;37.782;2023-07-28T12:37:10;38171.69;;;-145.63;57.67